sensor_id;sensor_type;location;lat;lon;timestamp;temperature;humidity
38854;DHT22;24606;51.992;4.198;2022-11-11T00:04:51;15.80;97.70
38854;DHT22;24606;51.992;4.198;2022-11-11T00:09:53;15.60;96.70
38854;DHT22;24606;51.992;4.198;2022-11-11T00:14:55;16.70;95.10
38854;DHT22;24606;51.992;4.198;2022-11-11T00:19:58;16.10;97.30
38854;DHT22;24606;51.992;4.198;2022-11-11T00:25:18;17.10;94.60
38854;DHT22;24606;51.992;4.198;2022-11-11T00:30:21;17.10;93.70
38854;DHT22;24606;51.992;4.198;2022-11-11T00:35:24;17.20;93.40
38854;DHT22;24606;51.992;4.198;2022-11-11T00:40:44;17.20;93.00
38854;DHT22;24606;51.992;4.198;2022-11-11T00:45:46;17.00;94.70
38854;DHT22;24606;51.992;4.198;2022-11-11T00:50:49;16.20;96.30
38854;DHT22;24606;51.992;4.198;2022-11-11T00:56:01;17.20;94.40
38854;DHT22;24606;51.992;4.198;2022-11-11T01:01:03;18.00;91.50
38854;DHT22;24606;51.992;4.198;2022-11-11T01:06:08;18.80;87.40
38854;DHT22;24606;51.992;4.198;2022-11-11T01:11:14;18.20;88.00
38854;DHT22;24606;51.992;4.198;2022-11-11T01:16:18;18.10;89.40
38854;DHT22;24606;51.992;4.198;2022-11-11T01:21:23;17.60;84.00
38854;DHT22;24606;51.992;4.198;2022-11-11T01:26:26;16.80;95.20
38854;DHT22;24606;51.992;4.198;2022-11-11T01:31:29;16.10;95.70
38854;DHT22;24606;51.992;4.198;2022-11-11T01:36:32;17.40;93.40
38854;DHT22;24606;51.992;4.198;2022-11-11T01:41:34;14.80;97.90
38854;DHT22;24606;51.992;4.198;2022-11-11T01:46:41;13.90;99.90
38854;DHT22;24606;51.992;4.198;2022-11-11T01:51:52;14.70;99.90
38854;DHT22;24606;51.992;4.198;2022-11-11T01:56:59;14.80;99.90
38854;DHT22;24606;51.992;4.198;2022-11-11T02:02:06;14.20;99.90
38854;DHT22;24606;51.992;4.198;2022-11-11T02:07:12;13.40;99.90
38854;DHT22;24606;51.992;4.198;2022-11-11T02:12:13;15.30;96.70
38854;DHT22;24606;51.992;4.198;2022-11-11T02:17:33;15.80;98.00
38854;DHT22;24606;51.992;4.198;2022-11-11T02:22:52;16.60;94.40
38854;DHT22;24606;51.992;4.198;2022-11-11T02:27:59;17.10;93.20
38854;DHT22;24606;51.992;4.198;2022-11-11T02:33:02;16.60;94.60
38854;DHT22;24606;51.992;4.198;2022-11-11T02:38:05;15.30;97.80
38854;DHT22;24606;51.992;4.198;2022-11-11T02:43:10;16.30;96.10
38854;DHT22;24606;51.992;4.198;2022-11-11T02:48:11;15.30;98.10
38854;DHT22;24606;51.992;4.198;2022-11-11T02:53:13;15.20;99.80
38854;DHT22;24606;51.992;4.198;2022-11-11T02:58:17;15.70;97.30
38854;DHT22;24606;51.992;4.198;2022-11-11T03:03:18;14.60;99.90
38854;DHT22;24606;51.992;4.198;2022-11-11T03:08:20;13.70;99.90
38854;DHT22;24606;51.992;4.198;2022-11-11T03:13:23;14.80;99.90
38854;DHT22;24606;51.992;4.198;2022-11-11T03:18:25;14.20;99.90
38854;DHT22;24606;51.992;4.198;2022-11-11T03:23:27;14.50;99.90
38854;DHT22;24606;51.992;4.198;2022-11-11T03:28:30;14.60;99.90
38854;DHT22;24606;51.992;4.198;2022-11-11T03:33:32;16.60;93.40
38854;DHT22;24606;51.992;4.198;2022-11-11T03:38:34;14.10;99.90
38854;DHT22;24606;51.992;4.198;2022-11-11T03:43:37;16.20;96.50
38854;DHT22;24606;51.992;4.198;2022-11-11T03:48:39;15.80;96.50
38854;DHT22;24606;51.992;4.198;2022-11-11T03:53:41;15.70;97.30
38854;DHT22;24606;51.992;4.198;2022-11-11T03:58:44;15.40;99.20
38854;DHT22;24606;51.992;4.198;2022-11-11T04:03:46;16.10;96.30
38854;DHT22;24606;51.992;4.198;2022-11-11T04:09:06;14.90;99.30
38854;DHT22;24606;51.992;4.198;2022-11-11T04:14:30;16.60;95.70
38854;DHT22;24606;51.992;4.198;2022-11-11T04:19:49;14.90;98.40
38854;DHT22;24606;51.992;4.198;2022-11-11T04:25:17;16.20;96.10
38854;DHT22;24606;51.992;4.198;2022-11-11T04:30:37;17.40;92.10
38854;DHT22;24606;51.992;4.198;2022-11-11T04:35:39;18.20;89.10
38854;DHT22;24606;51.992;4.198;2022-11-11T04:40:41;17.70;85.40
38854;DHT22;24606;51.992;4.198;2022-11-11T04:46:02;18.10;88.80
38854;DHT22;24606;51.992;4.198;2022-11-11T04:51:04;18.00;89.60
38854;DHT22;24606;51.992;4.198;2022-11-11T04:56:07;17.50;91.60
38854;DHT22;24606;51.992;4.198;2022-11-11T05:01:27;17.30;92.50
38854;DHT22;24606;51.992;4.198;2022-11-11T05:06:47;18.20;88.10
38854;DHT22;24606;51.992;4.198;2022-11-11T05:12:06;17.40;91.90
38854;DHT22;24606;51.992;4.198;2022-11-11T05:17:09;17.80;88.70
38854;DHT22;24606;51.992;4.198;2022-11-11T05:22:30;18.00;90.20
38854;DHT22;24606;51.992;4.198;2022-11-11T05:27:33;17.30;92.60
38854;DHT22;24606;51.992;4.198;2022-11-11T05:32:37;18.10;89.30
38854;DHT22;24606;51.992;4.198;2022-11-11T05:37:39;18.10;89.20
38854;DHT22;24606;51.992;4.198;2022-11-11T05:42:41;16.40;94.20
38854;DHT22;24606;51.992;4.198;2022-11-11T05:47:44;16.40;95.20
38854;DHT22;24606;51.992;4.198;2022-11-11T05:52:47;17.00;94.00
38854;DHT22;24606;51.992;4.198;2022-11-11T05:57:49;16.70;94.10
38854;DHT22;24606;51.992;4.198;2022-11-11T06:02:52;17.10;90.80
38854;DHT22;24606;51.992;4.198;2022-11-11T06:07:54;17.20;90.40
38854;DHT22;24606;51.992;4.198;2022-11-11T06:12:56;16.70;94.40
38854;DHT22;24606;51.992;4.198;2022-11-11T06:18:08;17.90;90.70
38854;DHT22;24606;51.992;4.198;2022-11-11T06:23:10;17.60;91.60
38854;DHT22;24606;51.992;4.198;2022-11-11T06:28:12;16.90;90.10
38854;DHT22;24606;51.992;4.198;2022-11-11T06:33:15;17.90;90.90
38854;DHT22;24606;51.992;4.198;2022-11-11T06:38:17;18.30;89.10
38854;DHT22;24606;51.992;4.198;2022-11-11T06:43:19;17.60;91.20
38854;DHT22;24606;51.992;4.198;2022-11-11T06:48:25;18.80;85.70
38854;DHT22;24606;51.992;4.198;2022-11-11T06:53:27;18.20;87.80
38854;DHT22;24606;51.992;4.198;2022-11-11T06:58:29;18.80;85.50
38854;DHT22;24606;51.992;4.198;2022-11-11T07:15:27;18.50;82.80
38854;DHT22;24606;51.992;4.198;2022-11-11T07:20:29;18.40;88.60
38854;DHT22;24606;51.992;4.198;2022-11-11T07:25:31;17.00;84.30
38854;DHT22;24606;51.992;4.198;2022-11-11T07:30:35;17.00;91.90
38854;DHT22;24606;51.992;4.198;2022-11-11T07:35:36;17.60;91.40
38854;DHT22;24606;51.992;4.198;2022-11-11T07:40:38;18.30;84.70
38854;DHT22;24606;51.992;4.198;2022-11-11T07:45:42;17.80;86.50
38854;DHT22;24606;51.992;4.198;2022-11-11T07:50:44;18.70;85.40
38854;DHT22;24606;51.992;4.198;2022-11-11T07:55:45;17.00;85.80
38854;DHT22;24606;51.992;4.198;2022-11-11T08:00:49;14.50;99.20
38854;DHT22;24606;51.992;4.198;2022-11-11T08:05:51;14.00;99.90
38854;DHT22;24606;51.992;4.198;2022-11-11T08:10:53;14.80;98.90
38854;DHT22;24606;51.992;4.198;2022-11-11T08:15:56;14.50;99.90
38854;DHT22;24606;51.992;4.198;2022-11-11T08:20:58;14.40;98.70
38854;DHT22;24606;51.992;4.198;2022-11-11T08:26:01;15.60;94.20
38854;DHT22;24606;51.992;4.198;2022-11-11T08:31:04;16.00;96.60
38854;DHT22;24606;51.992;4.198;2022-11-11T08:36:06;15.60;94.50
38854;DHT22;24606;51.992;4.198;2022-11-11T08:41:10;16.10;90.40
38854;DHT22;24606;51.992;4.198;2022-11-11T08:46:14;16.10;96.70
38854;DHT22;24606;51.992;4.198;2022-11-11T08:51:17;16.30;95.50
38854;DHT22;24606;51.992;4.198;2022-11-11T08:56:19;17.00;93.30
38854;DHT22;24606;51.992;4.198;2022-11-11T09:01:22;16.00;95.50
38854;DHT22;24606;51.992;4.198;2022-11-11T09:06:24;16.10;95.30
38854;DHT22;24606;51.992;4.198;2022-11-11T09:11:26;17.60;90.70
38854;DHT22;24606;51.992;4.198;2022-11-11T09:16:37;16.30;96.50
38854;DHT22;24606;51.992;4.198;2022-11-11T09:21:39;15.40;96.30
38854;DHT22;24606;51.992;4.198;2022-11-11T09:26:41;15.50;94.60
38854;DHT22;24606;51.992;4.198;2022-11-11T09:31:44;16.90;91.50
38854;DHT22;24606;51.992;4.198;2022-11-11T09:36:46;14.90;99.80
38854;DHT22;24606;51.992;4.198;2022-11-11T09:41:57;14.50;98.50
38854;DHT22;24606;51.992;4.198;2022-11-11T09:47:04;16.50;95.20
38854;DHT22;24606;51.992;4.198;2022-11-11T09:52:17;15.20;94.80
38854;DHT22;24606;51.992;4.198;2022-11-11T09:57:25;17.40;91.50
38854;DHT22;24606;51.992;4.198;2022-11-11T10:02:38;17.30;91.10
38854;DHT22;24606;51.992;4.198;2022-11-11T10:07:44;17.60;91.50
38854;DHT22;24606;51.992;4.198;2022-11-11T10:12:53;17.20;92.20
38854;DHT22;24606;51.992;4.198;2022-11-11T10:18:10;18.50;85.70
38854;DHT22;24606;51.992;4.198;2022-11-11T10:23:14;17.60;90.20
38854;DHT22;24606;51.992;4.198;2022-11-11T10:28:19;18.30;87.70
38854;DHT22;24606;51.992;4.198;2022-11-11T10:33:27;17.20;92.50
38854;DHT22;24606;51.992;4.198;2022-11-11T10:38:33;17.60;85.40
38854;DHT22;24606;51.992;4.198;2022-11-11T10:43:36;18.50;84.90
38854;DHT22;24606;51.992;4.198;2022-11-11T10:48:45;18.50;84.60
38854;DHT22;24606;51.992;4.198;2022-11-11T10:53:59;18.20;84.40
38854;DHT22;24606;51.992;4.198;2022-11-11T10:59:08;18.60;82.10
38854;DHT22;24606;51.992;4.198;2022-11-11T11:04:19;18.80;82.40
38854;DHT22;24606;51.992;4.198;2022-11-11T11:09:27;19.00;78.10
38854;DHT22;24606;51.992;4.198;2022-11-11T11:14:33;18.70;81.90
38854;DHT22;24606;51.992;4.198;2022-11-11T11:19:38;18.90;81.60
38854;DHT22;24606;51.992;4.198;2022-11-11T11:24:40;19.20;79.60
38854;DHT22;24606;51.992;4.198;2022-11-11T11:29:43;18.40;84.20
38854;DHT22;24606;51.992;4.198;2022-11-11T11:34:48;18.80;82.20
38854;DHT22;24606;51.992;4.198;2022-11-11T11:39:58;19.10;80.60
38854;DHT22;24606;51.992;4.198;2022-11-11T11:45:15;19.30;79.10
38854;DHT22;24606;51.992;4.198;2022-11-11T11:50:40;19.20;79.10
38854;DHT22;24606;51.992;4.198;2022-11-11T11:55:45;18.70;83.80
38854;DHT22;24606;51.992;4.198;2022-11-11T12:00:55;18.00;85.90
38854;DHT22;24606;51.992;4.198;2022-11-11T12:06:04;19.20;80.40
38854;DHT22;24606;51.992;4.198;2022-11-11T12:11:15;19.20;79.50
38854;DHT22;24606;51.992;4.198;2022-11-11T12:16:24;19.20;80.80
38854;DHT22;24606;51.992;4.198;2022-11-11T12:21:33;19.40;78.90
38854;DHT22;24606;51.992;4.198;2022-11-11T12:26:45;19.20;79.60
38854;DHT22;24606;51.992;4.198;2022-11-11T12:32:04;19.30;78.40
38854;DHT22;24606;51.992;4.198;2022-11-11T12:37:14;19.30;78.90
38854;DHT22;24606;51.992;4.198;2022-11-11T12:42:33;18.00;87.30
38854;DHT22;24606;51.992;4.198;2022-11-11T12:47:45;17.80;89.50
38854;DHT22;24606;51.992;4.198;2022-11-11T12:53:00;17.20;91.20
38854;DHT22;24606;51.992;4.198;2022-11-11T12:58:16;17.20;90.90
38854;DHT22;24606;51.992;4.198;2022-11-11T13:03:31;17.10;89.90
38854;DHT22;24606;51.992;4.198;2022-11-11T13:08:56;18.90;82.90
38854;DHT22;24606;51.992;4.198;2022-11-11T13:14:17;18.20;87.30
38854;DHT22;24606;51.992;4.198;2022-11-11T13:19:30;18.30;87.60
38854;DHT22;24606;51.992;4.198;2022-11-11T13:24:35;17.90;88.70
38854;DHT22;24606;51.992;4.198;2022-11-11T13:29:59;18.30;90.40
38854;DHT22;24606;51.992;4.198;2022-11-11T13:35:14;17.70;89.40
38854;DHT22;24606;51.992;4.198;2022-11-11T13:40:35;17.90;83.80
38854;DHT22;24606;51.992;4.198;2022-11-11T13:45:40;18.60;87.50
38854;DHT22;24606;51.992;4.198;2022-11-11T13:50:42;19.30;85.10
38854;DHT22;24606;51.992;4.198;2022-11-11T13:55:46;19.40;83.70
38854;DHT22;24606;51.992;4.198;2022-11-11T14:00:57;19.80;75.00
38854;DHT22;24606;51.992;4.198;2022-11-11T14:06:28;20.00;79.70
38854;DHT22;24606;51.992;4.198;2022-11-11T14:11:33;20.10;79.40
38854;DHT22;24606;51.992;4.198;2022-11-11T14:16:58;20.20;78.00
38854;DHT22;24606;51.992;4.198;2022-11-11T14:22:01;20.30;77.50
38854;DHT22;24606;51.992;4.198;2022-11-11T14:27:14;20.40;76.80
38854;DHT22;24606;51.992;4.198;2022-11-11T14:32:34;20.30;77.50
38854;DHT22;24606;51.992;4.198;2022-11-11T14:37:53;20.40;76.90
38854;DHT22;24606;51.992;4.198;2022-11-11T14:42:59;20.50;76.80
38854;DHT22;24606;51.992;4.198;2022-11-11T14:48:01;20.50;76.60
38854;DHT22;24606;51.992;4.198;2022-11-11T14:53:11;20.60;76.30
38854;DHT22;24606;51.992;4.198;2022-11-11T14:58:17;20.60;76.60
38854;DHT22;24606;51.992;4.198;2022-11-11T15:03:26;20.60;76.30
38854;DHT22;24606;51.992;4.198;2022-11-11T15:08:34;20.60;76.10
38854;DHT22;24606;51.992;4.198;2022-11-11T15:14:12;20.60;76.40
38854;DHT22;24606;51.992;4.198;2022-11-11T15:19:40;20.60;76.40
38854;DHT22;24606;51.992;4.198;2022-11-11T15:24:52;20.80;78.10
38854;DHT22;24606;51.992;4.198;2022-11-11T15:30:11;20.80;76.10
38854;DHT22;24606;51.992;4.198;2022-11-11T15:35:29;20.80;76.20
38854;DHT22;24606;51.992;4.198;2022-11-11T15:40:43;20.80;76.50
38854;DHT22;24606;51.992;4.198;2022-11-11T15:45:50;20.80;76.50
38854;DHT22;24606;51.992;4.198;2022-11-11T15:50:53;20.80;76.80
38854;DHT22;24606;51.992;4.198;2022-11-11T15:55:56;20.80;76.30
38854;DHT22;24606;51.992;4.198;2022-11-11T16:01:04;20.80;76.30
38854;DHT22;24606;51.992;4.198;2022-11-11T16:06:09;20.90;76.10
38854;DHT22;24606;51.992;4.198;2022-11-11T16:11:13;20.90;76.10
38854;DHT22;24606;51.992;4.198;2022-11-11T16:16:20;20.80;75.70
38854;DHT22;24606;51.992;4.198;2022-11-11T16:21:28;20.80;75.40
38854;DHT22;24606;51.992;4.198;2022-11-11T16:26:31;20.80;75.20
38854;DHT22;24606;51.992;4.198;2022-11-11T16:31:40;20.80;75.00
38854;DHT22;24606;51.992;4.198;2022-11-11T16:36:57;20.80;75.00
38854;DHT22;24606;51.992;4.198;2022-11-11T16:42:00;20.80;73.90
38854;DHT22;24606;51.992;4.198;2022-11-11T16:47:05;20.90;73.70
38854;DHT22;24606;51.992;4.198;2022-11-11T16:52:10;20.80;73.50
38854;DHT22;24606;51.992;4.198;2022-11-11T16:57:15;20.80;73.30
38854;DHT22;24606;51.992;4.198;2022-11-11T17:02:21;20.80;72.90
38854;DHT22;24606;51.992;4.198;2022-11-11T17:07:29;20.80;72.90
38854;DHT22;24606;51.992;4.198;2022-11-11T17:12:32;20.70;72.70
38854;DHT22;24606;51.992;4.198;2022-11-11T17:17:36;20.80;72.80
38854;DHT22;24606;51.992;4.198;2022-11-11T17:22:45;20.70;73.10
38854;DHT22;24606;51.992;4.198;2022-11-11T17:27:47;20.70;73.60
38854;DHT22;24606;51.992;4.198;2022-11-11T17:32:50;20.70;74.10
38854;DHT22;24606;51.992;4.198;2022-11-11T17:37:52;20.70;74.30
38854;DHT22;24606;51.992;4.198;2022-11-11T17:42:54;20.80;74.10
38854;DHT22;24606;51.992;4.198;2022-11-11T17:47:57;20.80;74.40
38854;DHT22;24606;51.992;4.198;2022-11-11T17:52:59;20.70;75.00
38854;DHT22;24606;51.992;4.198;2022-11-11T17:58:02;20.80;76.60
38854;DHT22;24606;51.992;4.198;2022-11-11T18:03:05;20.90;75.60
38854;DHT22;24606;51.992;4.198;2022-11-11T18:08:07;20.80;75.60
38854;DHT22;24606;51.992;4.198;2022-11-11T18:13:09;20.70;75.70
38854;DHT22;24606;51.992;4.198;2022-11-11T18:18:12;20.70;76.10
38854;DHT22;24606;51.992;4.198;2022-11-11T18:23:14;20.70;75.90
38854;DHT22;24606;51.992;4.198;2022-11-11T18:28:16;20.70;76.10
38854;DHT22;24606;51.992;4.198;2022-11-11T18:33:19;20.70;76.30
38854;DHT22;24606;51.992;4.198;2022-11-11T18:38:21;20.70;75.80
38854;DHT22;24606;51.992;4.198;2022-11-11T18:43:24;20.70;75.50
38854;DHT22;24606;51.992;4.198;2022-11-11T18:48:27;20.70;75.90
38854;DHT22;24606;51.992;4.198;2022-11-11T18:53:30;20.60;76.40
38854;DHT22;24606;51.992;4.198;2022-11-11T18:58:32;20.50;77.00
38854;DHT22;24606;51.992;4.198;2022-11-11T19:03:37;20.50;76.80
38854;DHT22;24606;51.992;4.198;2022-11-11T19:08:41;20.50;77.10
38854;DHT22;24606;51.992;4.198;2022-11-11T19:13:43;20.50;77.10
38854;DHT22;24606;51.992;4.198;2022-11-11T19:18:46;20.50;77.30
38854;DHT22;24606;51.992;4.198;2022-11-11T19:23:50;20.40;77.60
38854;DHT22;24606;51.992;4.198;2022-11-11T19:28:52;20.50;77.70
38854;DHT22;24606;51.992;4.198;2022-11-11T19:33:56;20.40;77.80
38854;DHT22;24606;51.992;4.198;2022-11-11T19:38:59;20.40;78.10
38854;DHT22;24606;51.992;4.198;2022-11-11T19:44:02;20.40;78.10
38854;DHT22;24606;51.992;4.198;2022-11-11T19:49:05;20.40;78.10
38854;DHT22;24606;51.992;4.198;2022-11-11T19:54:09;20.40;78.20
38854;DHT22;24606;51.992;4.198;2022-11-11T19:59:12;20.30;78.60
38854;DHT22;24606;51.992;4.198;2022-11-11T20:04:15;20.30;78.40
38854;DHT22;24606;51.992;4.198;2022-11-11T20:09:17;20.30;78.30
38854;DHT22;24606;51.992;4.198;2022-11-11T20:14:19;20.40;78.40
38854;DHT22;24606;51.992;4.198;2022-11-11T20:19:23;20.30;78.30
38854;DHT22;24606;51.992;4.198;2022-11-11T20:24:24;20.30;76.20
38854;DHT22;24606;51.992;4.198;2022-11-11T20:29:26;20.40;77.40
38854;DHT22;24606;51.992;4.198;2022-11-11T20:34:30;20.40;76.90
38854;DHT22;24606;51.992;4.198;2022-11-11T20:39:33;20.30;77.00
38854;DHT22;24606;51.992;4.198;2022-11-11T20:44:36;20.00;79.00
38854;DHT22;24606;51.992;4.198;2022-11-11T20:49:39;20.10;78.10
38854;DHT22;24606;51.992;4.198;2022-11-11T20:54:41;19.90;80.40
38854;DHT22;24606;51.992;4.198;2022-11-11T20:59:43;19.80;80.10
38854;DHT22;24606;51.992;4.198;2022-11-11T21:04:47;19.80;80.10
38854;DHT22;24606;51.992;4.198;2022-11-11T21:09:48;20.10;77.60
38854;DHT22;24606;51.992;4.198;2022-11-11T21:14:50;20.10;77.40
38854;DHT22;24606;51.992;4.198;2022-11-11T21:19:54;20.10;77.30
38854;DHT22;24606;51.992;4.198;2022-11-11T21:24:57;20.10;76.80
38854;DHT22;24606;51.992;4.198;2022-11-11T21:29:59;20.20;76.30
38854;DHT22;24606;51.992;4.198;2022-11-11T21:35:03;20.20;76.30
38854;DHT22;24606;51.992;4.198;2022-11-11T21:40:06;20.20;76.50
38854;DHT22;24606;51.992;4.198;2022-11-11T21:45:09;20.10;76.70
38854;DHT22;24606;51.992;4.198;2022-11-11T21:50:12;20.00;76.80
38854;DHT22;24606;51.992;4.198;2022-11-11T21:55:15;19.90;75.90
38854;DHT22;24606;51.992;4.198;2022-11-11T22:00:17;19.80;78.10
38854;DHT22;24606;51.992;4.198;2022-11-11T22:05:20;19.80;78.30
38854;DHT22;24606;51.992;4.198;2022-11-11T22:10:22;19.70;78.60
38854;DHT22;24606;51.992;4.198;2022-11-11T22:15:24;19.80;77.30
38854;DHT22;24606;51.992;4.198;2022-11-11T22:20:28;19.90;77.20
38854;DHT22;24606;51.992;4.198;2022-11-11T22:25:29;19.80;75.60
38854;DHT22;24606;51.992;4.198;2022-11-11T22:30:32;19.60;75.50
38854;DHT22;24606;51.992;4.198;2022-11-11T22:35:35;19.40;79.80
38854;DHT22;24606;51.992;4.198;2022-11-11T22:40:37;19.40;79.70
38854;DHT22;24606;51.992;4.198;2022-11-11T22:45:40;19.40;80.00
38854;DHT22;24606;51.992;4.198;2022-11-11T22:50:43;19.60;77.90
38854;DHT22;24606;51.992;4.198;2022-11-11T22:55:45;19.70;77.10
38854;DHT22;24606;51.992;4.198;2022-11-11T23:00:47;19.70;77.30
38854;DHT22;24606;51.992;4.198;2022-11-11T23:05:50;19.70;77.10
38854;DHT22;24606;51.992;4.198;2022-11-11T23:10:52;19.70;76.80
38854;DHT22;24606;51.992;4.198;2022-11-11T23:15:54;19.70;76.90
38854;DHT22;24606;51.992;4.198;2022-11-11T23:20:59;19.70;77.50
38854;DHT22;24606;51.992;4.198;2022-11-11T23:26:04;19.60;76.80
38854;DHT22;24606;51.992;4.198;2022-11-11T23:31:07;19.70;76.80
38854;DHT22;24606;51.992;4.198;2022-11-11T23:36:12;19.60;76.70
38854;DHT22;24606;51.992;4.198;2022-11-11T23:41:14;19.60;76.50
38854;DHT22;24606;51.992;4.198;2022-11-11T23:46:16;19.60;76.60
38854;DHT22;24606;51.992;4.198;2022-11-11T23:51:19;19.60;76.70
38854;DHT22;24606;51.992;4.198;2022-11-11T23:56:21;19.60;76.70
